createdAt,value
2023-02-18T00:00:23.578Z,43.50
2023-02-18T00:02:52.535Z,43.60
2023-02-18T00:05:19.446Z,43.44
2023-02-18T00:07:46.131Z,43.71
2023-02-18T00:10:14.916Z,43.61
2023-02-18T00:12:41.964Z,43.61
2023-02-18T00:15:09.762Z,43.42
2023-02-18T00:17:36.439Z,43.65
2023-02-18T00:20:04.624Z,43.56
2023-02-18T00:22:31.186Z,43.49
2023-02-18T00:24:57.811Z,43.58
2023-02-18T00:27:24.347Z,43.46
2023-02-18T00:29:51.051Z,43.30
2023-02-18T00:32:17.665Z,43.49
2023-02-18T00:34:44.279Z,43.47
2023-02-18T00:37:10.940Z,43.47
2023-02-18T00:39:37.546Z,43.31
2023-02-18T00:42:04.302Z,43.37
2023-02-18T00:44:30.901Z,43.34
2023-02-18T00:46:57.439Z,43.35
2023-02-18T00:49:24.017Z,43.36
2023-02-18T00:51:50.717Z,43.32
2023-02-18T00:54:17.309Z,43.37
2023-02-18T00:56:43.881Z,43.38
2023-02-18T00:59:10.465Z,43.79
2023-02-18T01:01:37.503Z,43.50
2023-02-18T01:04:04.225Z,43.42
2023-02-18T01:06:30.850Z,43.43
2023-02-18T01:08:57.490Z,43.48
2023-02-18T01:11:24.212Z,43.46
2023-02-18T01:13:51.018Z,43.31
2023-02-18T01:16:18.130Z,43.30
2023-02-18T01:18:44.695Z,43.28
2023-02-18T01:21:11.503Z,43.32
2023-02-18T01:23:39.292Z,43.34
2023-02-18T01:26:06.856Z,43.43
2023-02-18T01:28:34.136Z,43.38
2023-02-18T01:31:06.721Z,43.21
2023-02-18T01:33:33.607Z,43.29
2023-02-18T01:36:00.210Z,43.33
2023-02-18T01:38:26.862Z,43.28
2023-02-18T01:40:53.695Z,43.15
2023-02-18T01:43:21.254Z,43.35
2023-02-18T01:45:58.448Z,43.31
2023-02-18T01:48:30.742Z,43.12
2023-02-18T01:51:03.138Z,43.22
2023-02-18T01:54:08.544Z,43.24
2023-02-18T01:56:39.911Z,43.23
2023-02-18T01:59:13.175Z,43.13
2023-02-18T02:01:43.721Z,43.19
2023-02-18T02:04:10.265Z,43.29
2023-02-18T02:06:36.905Z,42.98
2023-02-18T02:09:06.764Z,43.38
2023-02-18T02:12:05.398Z,43.18
2023-02-18T02:14:49.376Z,43.11
2023-02-18T02:17:47.189Z,43.13
2023-02-18T02:20:38.626Z,43.07
2023-02-18T02:23:43.031Z,43.16
2023-02-18T02:26:34.060Z,42.94
2023-02-18T02:29:15.855Z,43.03
2023-02-18T02:32:01.051Z,43.08
2023-02-18T02:34:47.926Z,43.05
2023-02-18T02:37:32.239Z,43.05
2023-02-18T02:40:05.637Z,43.18
2023-02-18T02:42:49.557Z,43.02
2023-02-18T02:45:51.210Z,42.88
2023-02-18T02:48:46.295Z,43.11
2023-02-18T02:51:18.708Z,43.06
2023-02-18T02:53:45.313Z,43.01
2023-02-18T02:56:17.542Z,43.07
2023-02-18T02:58:47.897Z,43.08
2023-02-18T03:01:36.846Z,43.25
2023-02-18T03:04:51.813Z,43.26
2023-02-18T03:07:34.775Z,43.19
2023-02-18T03:10:10.094Z,43.16
2023-02-18T03:13:01.370Z,43.03
2023-02-18T03:15:39.947Z,43.14
2023-02-18T03:18:28.036Z,43.17
2023-02-18T03:21:18.904Z,43.22
2023-02-18T03:23:52.839Z,43.20
2023-02-18T03:26:21.857Z,43.00
2023-02-18T03:28:51.333Z,43.18
2023-02-18T03:31:21.770Z,43.13
2023-02-18T03:33:54.293Z,43.21
2023-02-18T03:36:22.032Z,43.17
2023-02-18T03:39:05.806Z,42.98
2023-02-18T03:41:33.463Z,43.11
2023-02-18T03:44:07.073Z,43.07
2023-02-18T03:46:35.650Z,43.27
2023-02-18T03:49:02.332Z,43.05
2023-02-18T03:51:29.185Z,43.20
2023-02-18T03:53:55.710Z,43.08
2023-02-18T03:56:22.835Z,43.12
2023-02-18T03:58:49.875Z,43.11
2023-02-18T04:01:16.497Z,43.11
2023-02-18T04:03:43.068Z,43.15
2023-02-18T04:06:09.875Z,43.00
2023-02-18T04:08:36.671Z,43.15
2023-02-18T04:11:03.776Z,43.17
2023-02-18T04:13:31.027Z,43.10
2023-02-18T04:15:57.580Z,43.18
2023-02-18T04:18:24.376Z,43.20
2023-02-18T04:20:51.694Z,43.18
2023-02-18T04:23:18.258Z,43.21
2023-02-18T04:25:44.960Z,43.15
2023-02-18T04:28:14.336Z,43.25
2023-02-18T04:30:41.496Z,43.22
2023-02-18T04:33:08.097Z,43.23
2023-02-18T04:35:34.713Z,43.27
2023-02-18T04:38:03.261Z,43.23
2023-02-18T04:40:30.761Z,43.28
2023-02-18T04:43:00.829Z,43.26
2023-02-18T04:45:28.359Z,43.31
2023-02-18T04:47:54.988Z,43.29
2023-02-18T04:50:23.299Z,43.43
2023-02-18T04:52:50.503Z,43.27
2023-02-18T04:55:17.134Z,43.30
2023-02-18T04:57:43.670Z,43.34
2023-02-18T05:00:14.097Z,43.21
2023-02-18T05:02:40.834Z,43.35
2023-02-18T05:05:07.652Z,43.36
2023-02-18T05:07:34.293Z,43.10
2023-02-18T05:10:00.861Z,43.18
2023-02-18T05:12:27.445Z,43.18
2023-02-18T05:14:55.102Z,43.20
2023-02-18T05:17:21.623Z,43.36
2023-02-18T05:19:48.254Z,43.41
2023-02-18T05:22:14.780Z,43.24
2023-02-18T05:24:41.409Z,42.92
2023-02-18T05:27:08.450Z,43.31
2023-02-18T05:29:35.088Z,43.40
2023-02-18T05:32:01.705Z,43.22
2023-02-18T05:34:28.287Z,43.36
2023-02-18T05:36:54.861Z,43.41
2023-02-18T05:39:21.422Z,43.48
2023-02-18T05:41:48.022Z,43.45
2023-02-18T05:44:30.410Z,43.38
2023-02-18T05:47:11.252Z,43.52
2023-02-18T05:49:40.184Z,43.44
2023-02-18T05:52:07.637Z,43.48
2023-02-18T05:54:35.075Z,43.38
2023-02-18T05:57:02.346Z,43.41
2023-02-18T05:59:29.629Z,43.51
2023-02-18T06:01:56.832Z,43.41
2023-02-18T06:04:23.400Z,43.42
2023-02-18T06:06:50.304Z,43.36
2023-02-18T06:09:16.912Z,43.40
2023-02-18T06:11:43.537Z,43.39
2023-02-18T06:14:10.197Z,43.33
2023-02-18T06:16:36.823Z,43.46
2023-02-18T06:19:03.807Z,43.39
2023-02-18T06:21:30.606Z,43.31
2023-02-18T06:23:57.156Z,43.46
2023-02-18T06:26:24.096Z,43.34
2023-02-18T06:28:50.704Z,43.36
2023-02-18T06:31:17.540Z,43.36
2023-02-18T06:33:44.113Z,43.41
2023-02-18T06:36:12.390Z,43.55
2023-02-18T06:38:41.293Z,43.43
2023-02-18T06:41:08.766Z,43.41
2023-02-18T06:43:36.057Z,43.41
2023-02-18T06:46:03.252Z,43.33
2023-02-18T06:48:29.901Z,43.47
2023-02-18T06:50:56.514Z,43.38
2023-02-18T06:53:23.229Z,43.25
2023-02-18T06:55:50.034Z,43.36
2023-02-18T06:58:17.846Z,43.36
2023-02-18T07:00:45.041Z,43.23
2023-02-18T07:03:14.476Z,43.36
2023-02-18T07:05:41.650Z,43.35
2023-02-18T07:08:08.429Z,43.27
2023-02-18T07:10:34.976Z,43.20
2023-02-18T07:13:01.554Z,43.34
2023-02-18T07:15:28.186Z,43.40
2023-02-18T07:17:55.027Z,43.39
2023-02-18T07:20:22.385Z,43.17
2023-02-18T07:22:49.249Z,43.23
2023-02-18T07:25:15.997Z,43.18
2023-02-18T07:27:42.651Z,43.34
2023-02-18T07:30:10.055Z,43.29
2023-02-18T07:32:36.672Z,43.37
2023-02-18T07:35:04.708Z,43.34
2023-02-18T07:37:31.414Z,43.17
2023-02-18T07:39:58.072Z,43.33
2023-02-18T07:42:25.104Z,43.30
2023-02-18T07:44:51.681Z,43.30
2023-02-18T07:47:19.866Z,43.38
2023-02-18T07:49:46.910Z,43.30
2023-02-18T07:52:14.936Z,43.34
2023-02-18T07:54:42.473Z,43.23
2023-02-18T07:57:09.199Z,43.15
2023-02-18T07:59:36.097Z,43.33
2023-02-18T08:02:03.019Z,43.24
2023-02-18T08:04:29.740Z,43.16
2023-02-18T08:06:56.372Z,42.91
2023-02-18T08:09:23.005Z,43.08
2023-02-18T08:11:49.697Z,43.07
2023-02-18T08:14:16.268Z,44.12
2023-02-18T08:16:42.870Z,45.20
2023-02-18T08:19:09.928Z,46.67
2023-02-18T08:21:36.501Z,47.64
2023-02-18T08:24:03.217Z,49.12
2023-02-18T08:26:30.017Z,48.42
2023-02-18T08:28:56.644Z,48.35
2023-02-18T08:31:26.328Z,47.50
2023-02-18T08:33:55.535Z,47.37
2023-02-18T08:36:22.938Z,47.13
2023-02-18T08:38:49.683Z,47.19
2023-02-18T08:41:18.685Z,46.67
2023-02-18T08:43:46.585Z,46.79
2023-02-18T08:46:19.372Z,47.25
2023-02-18T08:49:00.038Z,46.62
2023-02-18T08:51:26.601Z,46.05
2023-02-18T08:53:53.131Z,46.32
2023-02-18T08:56:19.783Z,45.67
2023-02-18T08:58:46.432Z,45.87
2023-02-18T09:01:13.985Z,45.83
2023-02-18T09:03:40.682Z,45.59
2023-02-18T09:06:07.438Z,45.49
2023-02-18T09:08:34.244Z,45.38
2023-02-18T09:11:04.641Z,45.37
2023-02-18T09:13:32.877Z,45.25
2023-02-18T09:16:19.775Z,45.35
2023-02-18T09:18:47.961Z,45.33
2023-02-18T09:21:16.184Z,44.84
2023-02-18T09:23:43.047Z,45.03
2023-02-18T09:26:14.304Z,45.03
2023-02-18T09:28:41.166Z,45.06
2023-02-18T09:31:18.617Z,45.09
2023-02-18T09:33:48.100Z,45.03
2023-02-18T09:36:14.878Z,44.79
2023-02-18T09:38:41.436Z,44.73
2023-02-18T09:41:24.602Z,44.76
2023-02-18T09:43:54.768Z,44.72
2023-02-18T09:46:30.260Z,44.72
2023-02-18T09:48:58.353Z,44.68
2023-02-18T09:51:24.970Z,44.42
2023-02-18T09:53:51.542Z,44.65
2023-02-18T09:56:26.418Z,44.75
2023-02-18T09:58:53.990Z,44.75
2023-02-18T10:01:35.566Z,44.79
2023-02-18T10:04:12.822Z,44.66
2023-02-18T10:06:39.439Z,44.56
2023-02-18T10:09:25.426Z,44.54
2023-02-18T10:11:56.449Z,44.52
2023-02-18T10:14:23.136Z,44.43
2023-02-18T10:16:51.685Z,44.37
2023-02-18T10:19:27.862Z,44.43
2023-02-18T10:21:55.170Z,44.32
2023-02-18T10:24:33.284Z,44.26
2023-02-18T10:27:00.856Z,44.37
2023-02-18T10:29:29.310Z,44.21
2023-02-18T10:32:04.863Z,44.30
2023-02-18T10:34:43.799Z,44.39
2023-02-18T10:37:33.500Z,44.15
2023-02-18T10:40:21.704Z,44.53
2023-02-18T10:43:03.346Z,45.47
2023-02-18T10:45:43.595Z,47.28
2023-02-18T10:48:39.791Z,50.53
2023-02-18T10:51:29.418Z,51.74
2023-02-18T10:53:56.083Z,51.64
2023-02-18T10:56:40.179Z,51.46
2023-02-18T10:59:12.953Z,50.89
2023-02-18T11:01:41.207Z,50.70
2023-02-18T11:04:17.112Z,49.95
2023-02-18T11:06:52.334Z,49.86
2023-02-18T11:09:46.861Z,49.28
2023-02-18T11:12:45.593Z,48.72
2023-02-18T11:15:15.047Z,48.40
2023-02-18T11:17:43.290Z,47.94
2023-02-18T11:20:30.431Z,47.81
2023-02-18T11:23:17.714Z,47.87
2023-02-18T11:26:14.765Z,47.67
2023-02-18T11:28:47.847Z,47.37
2023-02-18T11:31:25.488Z,47.00
2023-02-18T11:33:56.783Z,47.08
2023-02-18T11:36:32.285Z,46.83
2023-02-18T11:39:04.590Z,46.48
2023-02-18T11:41:40.331Z,46.43
2023-02-18T11:44:21.103Z,46.30
2023-02-18T11:47:02.656Z,46.22
2023-02-18T11:49:30.518Z,46.22
2023-02-18T11:52:06.571Z,46.20
2023-02-18T11:54:35.550Z,45.73
2023-02-18T11:57:10.805Z,45.94
2023-02-18T11:59:40.020Z,45.90
2023-02-18T12:02:09.566Z,45.72
2023-02-18T12:05:01.513Z,45.86
2023-02-18T12:07:41.494Z,45.93
2023-02-18T12:10:16.120Z,45.84
2023-02-18T12:13:12.713Z,45.84
2023-02-18T12:15:51.461Z,45.68
2023-02-18T12:18:30.405Z,45.78
2023-02-18T12:21:35.093Z,45.65
2023-02-18T12:24:20.684Z,45.58
2023-02-18T12:27:00.226Z,45.74
2023-02-18T12:29:54.167Z,45.81
2023-02-18T12:32:53.450Z,45.57
2023-02-18T12:35:52.275Z,45.66
2023-02-18T12:38:24.944Z,45.58
2023-02-18T12:41:17.043Z,45.62
2023-02-18T12:44:13.282Z,45.73
2023-02-18T12:46:52.699Z,45.58
2023-02-18T12:49:30.638Z,45.59
2023-02-18T12:52:05.881Z,45.67
2023-02-18T12:54:48.516Z,45.59
2023-02-18T12:57:33.561Z,45.67
2023-02-18T13:00:37.814Z,45.82
2023-02-18T13:03:10.255Z,45.74
2023-02-18T13:05:46.656Z,45.81
2023-02-18T13:08:40.922Z,45.75
2023-02-18T13:11:14.473Z,45.62
2023-02-18T13:13:53.283Z,45.65
2023-02-18T13:16:21.770Z,45.61
2023-02-18T13:19:14.782Z,45.80
2023-02-18T13:21:44.699Z,45.84
2023-02-18T13:24:17.082Z,45.36
2023-02-18T13:26:49.031Z,45.79
2023-02-18T13:29:24.159Z,45.74
2023-02-18T13:32:27.762Z,45.70
2023-02-18T13:35:08.574Z,45.49
2023-02-18T13:38:00.322Z,45.66
2023-02-18T13:40:30.594Z,45.64
2023-02-18T13:43:28.109Z,45.39
2023-02-18T13:46:15.062Z,45.43
2023-02-18T13:48:55.320Z,45.44
2023-02-18T13:51:45.319Z,45.37
2023-02-18T13:54:17.612Z,45.38
2023-02-18T13:56:51.065Z,45.28
2023-02-18T13:59:32.469Z,45.22
2023-02-18T14:02:28.582Z,45.20
2023-02-18T14:04:56.194Z,45.18
2023-02-18T14:07:44.105Z,45.12
2023-02-18T14:10:16.613Z,45.40
2023-02-18T14:13:20.080Z,45.36
2023-02-18T14:16:01.269Z,45.25
2023-02-18T14:18:38.482Z,45.25
2023-02-18T14:21:14.224Z,45.04
2023-02-18T14:23:52.847Z,45.05
2023-02-18T14:26:24.294Z,45.21
2023-02-18T14:28:57.431Z,45.02
2023-02-18T14:31:36.809Z,44.90
2023-02-18T14:34:26.202Z,44.97
2023-02-18T14:37:04.774Z,44.92
2023-02-18T14:39:46.565Z,44.96
2023-02-18T14:42:44.868Z,44.98
2023-02-18T14:45:40.878Z,44.95
2023-02-18T14:48:16.196Z,44.82
2023-02-18T14:50:46.142Z,44.84
2023-02-18T14:53:20.640Z,44.66
2023-02-18T14:55:53.787Z,44.87
2023-02-18T14:58:27.520Z,44.98
2023-02-18T15:00:54.152Z,44.86
2023-02-18T15:03:22.401Z,44.87
2023-02-18T15:05:52.006Z,44.99
2023-02-18T15:08:24.031Z,44.87
2023-02-18T15:11:01.398Z,44.98
2023-02-18T15:13:37.009Z,44.96
2023-02-18T15:16:09.748Z,44.80
2023-02-18T15:18:40.603Z,45.04
2023-02-18T15:21:17.711Z,44.79
2023-02-18T15:23:44.269Z,44.82
2023-02-18T15:26:15.440Z,44.61
2023-02-18T15:28:52.032Z,44.80
2023-02-18T15:31:24.730Z,44.61
2023-02-18T15:33:52.487Z,44.89
2023-02-18T15:36:19.110Z,44.69
2023-02-18T15:38:45.727Z,44.69
2023-02-18T15:41:15.671Z,44.47
2023-02-18T15:43:54.443Z,44.73
2023-02-18T15:46:23.904Z,44.65
2023-02-18T15:48:53.640Z,44.73
2023-02-18T15:51:25.057Z,44.83
2023-02-18T15:53:56.494Z,44.98
2023-02-18T15:56:36.543Z,44.85
2023-02-18T15:59:10.384Z,45.23
2023-02-18T16:01:37.360Z,45.21
2023-02-18T16:04:07.325Z,45.52
2023-02-18T16:06:45.936Z,45.88
2023-02-18T16:09:12.438Z,45.93
2023-02-18T16:11:42.120Z,46.08
2023-02-18T16:14:31.891Z,46.09
2023-02-18T16:17:17.153Z,46.20
2023-02-18T16:20:16.171Z,46.28
2023-02-18T16:22:50.459Z,46.26
2023-02-18T16:25:22.771Z,46.18
2023-02-18T16:27:58.213Z,46.45
2023-02-18T16:30:28.823Z,46.46
2023-02-18T16:32:57.946Z,46.34
2023-02-18T16:35:27.880Z,46.26
2023-02-18T16:37:57.775Z,46.50
2023-02-18T16:40:24.357Z,46.39
2023-02-18T16:42:52.680Z,46.32
2023-02-18T16:45:20.669Z,46.47
2023-02-18T16:47:49.876Z,46.36
2023-02-18T16:50:19.854Z,46.21
2023-02-18T16:52:47.419Z,46.38
2023-02-18T16:55:22.492Z,46.44
2023-02-18T16:57:49.436Z,46.33
2023-02-18T17:00:17.988Z,46.14
2023-02-18T17:02:50.073Z,46.33
2023-02-18T17:05:26.505Z,46.03
2023-02-18T17:07:54.294Z,46.13
2023-02-18T17:10:21.130Z,46.25
2023-02-18T17:12:47.675Z,46.03
2023-02-18T17:15:30.789Z,46.09
2023-02-18T17:17:59.408Z,45.98
2023-02-18T17:20:27.710Z,46.03
2023-02-18T17:22:56.028Z,45.90
2023-02-18T17:25:29.152Z,45.95
2023-02-18T17:27:57.344Z,45.84
2023-02-18T17:30:24.147Z,45.81
2023-02-18T17:32:50.962Z,45.81
2023-02-18T17:35:20.077Z,45.84
2023-02-18T17:37:47.236Z,45.90
2023-02-18T17:40:19.805Z,45.63
2023-02-18T17:42:46.785Z,45.66
2023-02-18T17:45:32.140Z,45.54
2023-02-18T17:48:00.648Z,45.43
2023-02-18T17:50:28.747Z,45.73
2023-02-18T17:52:55.666Z,45.50
2023-02-18T17:55:23.898Z,45.57
2023-02-18T17:57:52.122Z,45.51
2023-02-18T18:00:22.632Z,45.69
2023-02-18T18:02:49.339Z,45.62
2023-02-18T18:05:31.693Z,45.40
2023-02-18T18:07:58.252Z,45.50
2023-02-18T18:10:30.599Z,45.69
2023-02-18T18:12:59.002Z,45.50
2023-02-18T18:15:40.527Z,45.54
2023-02-18T18:18:07.897Z,45.43
2023-02-18T18:20:35.846Z,45.56
2023-02-18T18:23:05.335Z,45.51
2023-02-18T18:25:34.808Z,45.68
2023-02-18T18:28:01.526Z,45.43
2023-02-18T18:30:30.713Z,45.50
2023-02-18T18:32:58.028Z,45.46
2023-02-18T18:35:31.820Z,45.58
2023-02-18T18:37:59.344Z,45.50
2023-02-18T18:40:29.283Z,45.68
2023-02-18T18:42:57.782Z,45.41
2023-02-18T18:45:30.889Z,45.35
2023-02-18T18:47:58.174Z,45.37
2023-02-18T18:50:26.853Z,45.42
2023-02-18T18:52:54.256Z,45.36
2023-02-18T18:55:31.631Z,45.37
2023-02-18T18:57:59.511Z,45.50
2023-02-18T19:00:33.274Z,45.50
2023-02-18T19:03:00.246Z,45.39
2023-02-18T19:05:39.291Z,45.38
2023-02-18T19:08:07.296Z,45.38
2023-02-18T19:10:38.390Z,45.18
2023-02-18T19:13:12.854Z,45.24
2023-02-18T19:15:40.422Z,45.24
2023-02-18T19:18:07.918Z,45.42
2023-02-18T19:20:35.960Z,45.36
2023-02-18T19:23:03.227Z,45.26
2023-02-18T19:25:30.396Z,45.26
2023-02-18T19:27:57.322Z,45.24
2023-02-18T19:30:33.192Z,45.23
2023-02-18T19:33:01.682Z,45.22
2023-02-18T19:35:29.858Z,45.20
2023-02-18T19:37:56.898Z,45.10
2023-02-18T19:40:26.289Z,45.19
2023-02-18T19:42:53.802Z,45.24
2023-02-18T19:45:21.005Z,45.21
2023-02-18T19:47:52.301Z,45.11
2023-02-18T19:50:18.880Z,45.11
2023-02-18T19:52:45.492Z,45.14
2023-02-18T19:55:12.195Z,45.16
2023-02-18T19:57:39.208Z,45.24
2023-02-18T20:00:08.814Z,45.35
2023-02-18T20:02:35.624Z,45.15
2023-02-18T20:05:02.595Z,45.23
2023-02-18T20:07:29.926Z,45.07
2023-02-18T20:09:56.702Z,45.30
2023-02-18T20:12:23.377Z,44.99
2023-02-18T20:14:51.121Z,45.16
2023-02-18T20:17:18.688Z,45.10
2023-02-18T20:19:45.577Z,45.24
2023-02-18T20:22:12.679Z,45.04
2023-02-18T20:24:40.058Z,45.12
2023-02-18T20:27:08.516Z,45.10
2023-02-18T20:29:36.301Z,44.97
2023-02-18T20:32:04.887Z,45.05
2023-02-18T20:34:32.818Z,45.17
2023-02-18T20:36:59.894Z,45.01
2023-02-18T20:39:26.455Z,44.85
2023-02-18T20:41:53.003Z,45.10
2023-02-18T20:44:20.978Z,45.20
2023-02-18T20:46:49.170Z,45.11
2023-02-18T20:49:18.950Z,45.13
2023-02-18T20:51:45.788Z,45.06
2023-02-18T20:54:15.851Z,44.93
2023-02-18T20:56:43.767Z,45.15
2023-02-18T20:59:15.548Z,44.96
2023-02-18T21:01:43.496Z,45.18
2023-02-18T21:04:18.009Z,45.01
2023-02-18T21:06:47.684Z,45.15
2023-02-18T21:09:15.710Z,45.23
2023-02-18T21:11:43.187Z,45.11
2023-02-18T21:14:10.775Z,45.23
2023-02-18T21:16:40.468Z,45.45
2023-02-18T21:19:08.628Z,45.31
2023-02-18T21:21:35.803Z,45.28
2023-02-18T21:24:02.825Z,45.38
2023-02-18T21:26:29.920Z,45.16
2023-02-18T21:28:59.184Z,45.33
2023-02-18T21:31:27.445Z,45.23
2023-02-18T21:33:54.051Z,45.19
2023-02-18T21:36:21.634Z,45.17
2023-02-18T21:38:52.829Z,45.32
2023-02-18T21:41:19.545Z,45.10
2023-02-18T21:43:47.336Z,45.11
2023-02-18T21:46:21.038Z,45.26
2023-02-18T21:49:03.439Z,45.17
2023-02-18T21:51:50.578Z,45.16
2023-02-18T21:54:18.496Z,44.94
2023-02-18T21:56:45.105Z,45.20
2023-02-18T21:59:11.703Z,45.24
2023-02-18T22:01:38.492Z,45.20
2023-02-18T22:04:05.321Z,45.04
2023-02-18T22:06:32.058Z,45.08
2023-02-18T22:09:01.617Z,44.87
2023-02-18T22:11:29.143Z,44.86
2023-02-18T22:13:55.685Z,44.82
2023-02-18T22:16:22.361Z,44.94
2023-02-18T22:18:50.226Z,45.03
2023-02-18T22:21:16.989Z,44.95
2023-02-18T22:23:43.573Z,44.69
2023-02-18T22:26:10.947Z,44.83
2023-02-18T22:28:37.756Z,44.99
2023-02-18T22:31:13.164Z,44.75
2023-02-18T22:33:41.273Z,44.79
2023-02-18T22:36:08.541Z,44.71
2023-02-18T22:38:37.180Z,44.82
2023-02-18T22:41:09.528Z,44.82
2023-02-18T22:43:36.523Z,44.54
2023-02-18T22:46:15.767Z,44.80
2023-02-18T22:48:42.675Z,44.70
2023-02-18T22:51:17.831Z,44.78
2023-02-18T22:53:45.329Z,44.95
2023-02-18T22:56:14.678Z,44.82
2023-02-18T22:58:42.729Z,44.82
2023-02-18T23:01:25.591Z,44.73
2023-02-18T23:03:53.095Z,44.66
2023-02-18T23:06:20.782Z,44.66
2023-02-18T23:08:47.855Z,44.72
2023-02-18T23:11:16.969Z,44.77
2023-02-18T23:13:43.728Z,44.56
2023-02-18T23:16:15.918Z,44.59
2023-02-18T23:18:42.532Z,44.55
2023-02-18T23:21:17.766Z,44.62
2023-02-18T23:23:46.132Z,44.55
2023-02-18T23:26:13.599Z,44.63
2023-02-18T23:28:49.756Z,44.61
2023-02-18T23:31:19.477Z,44.52
2023-02-18T23:33:49.388Z,44.38
2023-02-18T23:36:19.695Z,44.49
2023-02-18T23:38:54.891Z,44.46
2023-02-18T23:41:22.312Z,44.46
2023-02-18T23:43:49.415Z,44.43
2023-02-18T23:46:18.054Z,44.60
2023-02-18T23:48:44.651Z,44.58
2023-02-18T23:51:14.725Z,44.61
2023-02-18T23:53:41.565Z,44.49
2023-02-18T23:56:22.250Z,44.55
2023-02-18T23:58:52.448Z,44.38
